createdAt,value
2022-09-11T00:01:46.612Z,16.56
2022-09-11T00:04:14.375Z,16.57
2022-09-11T00:06:43.162Z,16.62
2022-09-11T00:09:11.416Z,16.56
2022-09-11T00:11:41.779Z,16.51
2022-09-11T00:14:14.116Z,16.53
2022-09-11T00:16:45.605Z,16.53
2022-09-11T00:19:19.068Z,16.46
2022-09-11T00:21:50.434Z,16.48
2022-09-11T00:24:18.245Z,16.52
2022-09-11T00:26:47.557Z,16.49
2022-09-11T00:29:15.622Z,16.48
2022-09-11T00:31:43.647Z,16.47
2022-09-11T00:34:11.526Z,16.36
2022-09-11T00:36:41.611Z,16.31
2022-09-11T00:39:12.122Z,16.32
2022-09-11T00:41:44.870Z,16.29
2022-09-11T00:44:18.762Z,16.33
2022-09-11T00:47:00.438Z,16.27
2022-09-11T00:49:35.081Z,16.28
2022-09-11T00:52:20.752Z,16.27
2022-09-11T00:55:09.059Z,16.35
2022-09-11T00:57:52.395Z,16.42
2022-09-11T01:00:20.615Z,16.35
2022-09-11T01:02:51.611Z,16.30
2022-09-11T01:05:22.396Z,16.27
2022-09-11T01:07:54.473Z,16.27
2022-09-11T01:10:48.118Z,16.38
2022-09-11T01:13:46.449Z,16.40
2022-09-11T01:16:20.090Z,16.49
2022-09-11T01:19:34.945Z,16.42
2022-09-11T01:22:57.084Z,16.42
2022-09-11T01:25:27.953Z,16.48
2022-09-11T01:28:00.936Z,16.50
2022-09-11T01:30:37.421Z,16.58
2022-09-11T01:33:09.485Z,16.58
2022-09-11T01:36:07.730Z,16.62
2022-09-11T01:38:51.218Z,16.61
2022-09-11T01:41:52.102Z,16.61
2022-09-11T01:44:31.814Z,16.53
2022-09-11T01:47:01.032Z,16.63
2022-09-11T01:50:04.810Z,16.70
2022-09-11T01:52:42.063Z,16.69
2022-09-11T01:55:24.085Z,16.68
2022-09-11T01:58:25.034Z,16.73
2022-09-11T02:01:19.225Z,16.86
2022-09-11T02:04:15.166Z,16.74
2022-09-11T02:07:05.070Z,16.72
2022-09-11T02:09:57.699Z,16.72
2022-09-11T02:12:42.394Z,16.67
2022-09-11T02:15:15.912Z,16.67
2022-09-11T02:18:00.187Z,16.69
2022-09-11T02:20:31.414Z,16.62
2022-09-11T02:22:59.338Z,16.65
2022-09-11T02:25:27.179Z,16.59
2022-09-11T02:27:59.004Z,16.50
2022-09-11T02:30:27.557Z,16.53
2022-09-11T02:32:56.383Z,16.48
2022-09-11T02:35:35.542Z,16.48
2022-09-11T02:38:22.357Z,16.45
2022-09-11T02:41:03.088Z,16.43
2022-09-11T02:44:12.594Z,16.42
2022-09-11T02:47:05.699Z,16.20
2022-09-11T02:50:38.104Z,16.18
2022-09-11T02:54:00.182Z,16.18
2022-09-11T02:57:03.667Z,16.22
2022-09-11T02:59:39.267Z,16.16
2022-09-11T03:02:13.241Z,16.05
2022-09-11T03:04:42.280Z,16.06
2022-09-11T03:07:10.687Z,16.15
2022-09-11T03:09:39.285Z,16.16
2022-09-11T03:12:14.323Z,16.00
2022-09-11T03:14:42.594Z,15.95
2022-09-11T03:17:11.751Z,15.97
2022-09-11T03:19:39.592Z,15.96
2022-09-11T03:22:07.483Z,15.93
2022-09-11T03:24:35.277Z,15.90
2022-09-11T03:27:04.613Z,15.78
2022-09-11T03:29:33.646Z,15.82
2022-09-11T03:32:02.289Z,15.78
2022-09-11T03:34:30.337Z,15.83
2022-09-11T03:36:58.113Z,15.74
2022-09-11T03:39:26.058Z,15.73
2022-09-11T03:41:54.295Z,15.73
2022-09-11T03:44:24.010Z,15.74
2022-09-11T03:46:53.079Z,15.80
2022-09-11T03:49:20.834Z,15.86
2022-09-11T03:51:48.679Z,15.86
2022-09-11T03:54:17.673Z,15.86
2022-09-11T03:56:47.081Z,16.01
2022-09-11T03:59:16.490Z,16.03
2022-09-11T04:01:45.568Z,16.13
2022-09-11T04:04:14.069Z,16.11
2022-09-11T04:06:44.636Z,16.12
2022-09-11T04:09:13.462Z,16.18
2022-09-11T04:11:43.067Z,16.19
2022-09-11T04:14:22.640Z,16.15
2022-09-11T04:16:51.426Z,16.17
2022-09-11T04:19:21.314Z,16.19
2022-09-11T04:21:49.240Z,16.18
2022-09-11T04:24:17.482Z,16.14
2022-09-11T04:26:47.714Z,16.13
2022-09-11T04:29:22.535Z,16.10
2022-09-11T04:31:51.454Z,16.10
2022-09-11T04:34:20.029Z,16.15
2022-09-11T04:36:47.818Z,16.17
2022-09-11T04:39:20.570Z,16.11
2022-09-11T04:41:49.489Z,16.17
2022-09-11T04:44:17.607Z,16.13
2022-09-11T04:46:45.558Z,16.09
2022-09-11T04:49:14.825Z,16.07
2022-09-11T04:51:43.706Z,16.09
2022-09-11T04:54:21.156Z,16.11
2022-09-11T04:56:49.137Z,16.11
2022-09-11T04:59:22.442Z,16.15
2022-09-11T05:01:59.309Z,16.12
2022-09-11T05:04:28.893Z,16.09
2022-09-11T05:06:56.737Z,16.10
2022-09-11T05:09:26.823Z,16.15
2022-09-11T05:11:57.007Z,16.13
2022-09-11T05:14:28.647Z,16.09
2022-09-11T05:16:57.329Z,16.12
2022-09-11T05:19:26.781Z,16.07
2022-09-11T05:21:55.592Z,16.01
2022-09-11T05:24:24.987Z,15.93
2022-09-11T05:26:53.434Z,15.82
2022-09-11T05:29:23.588Z,15.81
2022-09-11T05:31:59.165Z,15.84
2022-09-11T05:34:30.405Z,15.83
2022-09-11T05:36:59.786Z,15.89
2022-09-11T05:39:30.882Z,15.89
2022-09-11T05:42:01.800Z,15.85
2022-09-11T05:44:33.522Z,15.88
2022-09-11T05:47:01.998Z,15.87
2022-09-11T05:49:30.814Z,15.85
2022-09-11T05:52:01.398Z,15.88
2022-09-11T05:54:32.094Z,15.90
2022-09-11T05:57:07.420Z,15.94
2022-09-11T05:59:37.864Z,15.94
2022-09-11T06:02:06.254Z,16.08
2022-09-11T06:04:56.554Z,16.26
2022-09-11T06:07:26.772Z,16.38
2022-09-11T06:09:57.770Z,16.55
2022-09-11T06:12:28.333Z,16.56
2022-09-11T06:14:58.597Z,16.66
2022-09-11T06:17:26.478Z,16.75
2022-09-11T06:19:55.158Z,16.84
2022-09-11T06:22:24.013Z,16.95
2022-09-11T06:24:53.987Z,17.08
2022-09-11T06:27:21.837Z,17.16
2022-09-11T06:29:51.322Z,17.25
2022-09-11T06:32:21.506Z,17.35
2022-09-11T06:34:49.520Z,17.43
2022-09-11T06:37:17.745Z,17.52
2022-09-11T06:39:45.786Z,17.55
2022-09-11T06:42:20.594Z,17.56
2022-09-11T06:44:50.884Z,17.73
2022-09-11T06:47:19.257Z,17.73
2022-09-11T06:49:47.483Z,17.77
2022-09-11T06:52:21.312Z,17.83
2022-09-11T06:55:02.280Z,17.90
2022-09-11T06:57:31.314Z,18.02
2022-09-11T06:59:59.138Z,17.97
2022-09-11T07:02:28.764Z,18.13
2022-09-11T07:04:56.698Z,18.30
2022-09-11T07:07:28.671Z,18.30
2022-09-11T07:09:57.230Z,18.36
2022-09-11T07:12:28.123Z,18.49
2022-09-11T07:14:59.029Z,18.68
2022-09-11T07:17:26.893Z,18.60
2022-09-11T07:19:55.092Z,18.76
2022-09-11T07:22:22.961Z,18.84
2022-09-11T07:24:52.578Z,18.91
2022-09-11T07:27:21.226Z,18.85
2022-09-11T07:29:49.094Z,18.75
2022-09-11T07:32:16.965Z,18.90
2022-09-11T07:34:47.518Z,18.91
2022-09-11T07:37:15.929Z,18.95
2022-09-11T07:39:43.786Z,18.98
2022-09-11T07:42:21.958Z,19.18
2022-09-11T07:44:50.756Z,19.21
2022-09-11T07:47:18.777Z,19.41
2022-09-11T07:49:51.059Z,19.38
2022-09-11T07:52:20.654Z,19.42
2022-09-11T07:54:55.246Z,19.56
2022-09-11T07:57:28.054Z,19.75
2022-09-11T07:59:56.649Z,19.84
2022-09-11T08:02:24.530Z,19.47
2022-09-11T08:04:52.994Z,19.67
2022-09-11T08:07:23.161Z,19.61
2022-09-11T08:10:10.218Z,19.61
2022-09-11T08:12:39.978Z,19.48
2022-09-11T08:15:08.428Z,19.61
2022-09-11T08:17:36.698Z,19.88
2022-09-11T08:20:05.375Z,19.93
2022-09-11T08:22:33.214Z,19.73
2022-09-11T08:25:01.058Z,19.70
2022-09-11T08:27:29.343Z,19.73
2022-09-11T08:29:57.248Z,19.70
2022-09-11T08:32:25.112Z,19.69
2022-09-11T08:34:53.062Z,19.63
2022-09-11T08:37:22.335Z,19.48
2022-09-11T08:39:50.281Z,19.44
2022-09-11T08:42:18.609Z,19.48
2022-09-11T08:45:00.747Z,19.61
2022-09-11T08:47:58.206Z,19.78
2022-09-11T08:50:40.087Z,19.84
2022-09-11T08:53:15.466Z,19.76
2022-09-11T08:55:49.061Z,19.85
2022-09-11T08:59:02.225Z,19.80
2022-09-11T09:02:28.072Z,19.75
2022-09-11T09:05:43.351Z,19.63
2022-09-11T09:08:35.220Z,19.82
2022-09-11T09:11:33.093Z,19.89
2022-09-11T09:14:47.997Z,20.28
2022-09-11T09:17:42.028Z,20.61
2022-09-11T09:20:23.301Z,20.13
2022-09-11T09:22:59.454Z,20.28
2022-09-11T09:25:31.137Z,20.06
2022-09-11T09:28:25.505Z,20.53
2022-09-11T09:30:59.515Z,20.97
2022-09-11T09:33:32.592Z,21.12
2022-09-11T09:36:46.565Z,20.87
2022-09-11T09:39:17.353Z,21.03
2022-09-11T09:42:11.167Z,20.97
2022-09-11T09:45:09.943Z,21.03
2022-09-11T09:47:44.566Z,21.33
2022-09-11T09:50:39.416Z,21.41
2022-09-11T09:53:27.421Z,21.26
2022-09-11T09:55:56.676Z,21.46
2022-09-11T09:58:30.807Z,21.79
2022-09-11T10:00:59.639Z,22.02
2022-09-11T10:03:28.053Z,22.25
2022-09-11T10:05:56.963Z,22.30
2022-09-11T10:08:27.833Z,21.59
2022-09-11T10:11:11.525Z,21.68
2022-09-11T10:13:53.599Z,21.68
2022-09-11T10:16:27.897Z,21.13
2022-09-11T10:18:56.494Z,22.02
2022-09-11T10:21:33.405Z,21.14
2022-09-11T10:24:23.339Z,21.65
2022-09-11T10:26:54.207Z,21.95
2022-09-11T10:29:32.886Z,22.46
2022-09-11T10:32:05.806Z,22.62
2022-09-11T10:34:40.405Z,22.86
2022-09-11T10:37:14.378Z,22.91
2022-09-11T10:39:46.814Z,23.04
2022-09-11T10:42:26.053Z,23.42
2022-09-11T10:45:00.630Z,23.16
2022-09-11T10:47:29.882Z,22.49
2022-09-11T10:50:17.002Z,22.49
2022-09-11T10:52:59.818Z,22.88
2022-09-11T10:55:40.322Z,22.22
2022-09-11T10:58:19.418Z,22.34
2022-09-11T11:00:51.602Z,22.27
2022-09-11T11:03:28.068Z,22.07
2022-09-11T11:06:20.653Z,22.43
2022-09-11T11:09:01.212Z,22.35
2022-09-11T11:11:51.148Z,22.14
2022-09-11T11:14:44.169Z,22.34
2022-09-11T11:17:35.715Z,22.30
2022-09-11T11:20:55.425Z,22.45
2022-09-11T11:23:51.962Z,22.45
2022-09-11T11:26:32.216Z,22.39
2022-09-11T11:29:30.797Z,22.37
2022-09-11T11:32:51.052Z,22.19
2022-09-11T11:35:33.812Z,22.32
2022-09-11T11:38:25.787Z,22.12
2022-09-11T11:41:19.558Z,22.29
2022-09-11T11:43:50.497Z,22.27
2022-09-11T11:46:25.288Z,22.33
2022-09-11T11:49:05.753Z,22.37
2022-09-11T11:51:50.161Z,22.45
2022-09-11T11:54:39.105Z,22.49
2022-09-11T11:57:16.801Z,22.81
2022-09-11T12:00:01.886Z,23.21
2022-09-11T12:02:51.366Z,22.99
2022-09-11T12:05:31.389Z,23.38
2022-09-11T12:07:59.994Z,23.13
2022-09-11T12:10:28.030Z,23.13
2022-09-11T12:15:34.283Z,23.01
2022-09-11T12:18:03.401Z,23.21
2022-09-11T12:20:35.561Z,23.28
2022-09-11T12:23:04.345Z,23.86
2022-09-11T12:25:35.500Z,24.25
2022-09-11T12:28:26.257Z,24.28
2022-09-11T12:31:12.208Z,24.59
2022-09-11T12:33:48.633Z,24.85
2022-09-11T12:36:46.897Z,25.37
2022-09-11T12:40:02.034Z,25.07
2022-09-11T12:42:29.891Z,24.87
2022-09-11T12:45:04.739Z,24.67
2022-09-11T12:47:41.800Z,24.40
2022-09-11T12:50:12.751Z,24.15
2022-09-11T12:52:52.786Z,24.07
2022-09-11T12:55:49.469Z,24.91
2022-09-11T12:58:20.318Z,25.17
2022-09-11T13:00:51.739Z,26.79
2022-09-11T13:03:28.136Z,26.83
2022-09-11T13:06:04.083Z,24.83
2022-09-11T13:08:40.925Z,24.40
2022-09-11T13:11:42.701Z,25.37
2022-09-11T13:14:28.930Z,23.39
2022-09-11T13:17:01.372Z,23.05
2022-09-11T13:19:37.736Z,23.91
2022-09-11T13:22:31.226Z,23.72
2022-09-11T13:25:21.907Z,23.70
2022-09-11T13:27:56.270Z,23.12
2022-09-11T13:30:25.816Z,23.19
2022-09-11T13:33:18.637Z,23.09
2022-09-11T13:35:47.136Z,22.82
2022-09-11T13:38:21.823Z,22.90
2022-09-11T13:41:07.022Z,23.06
2022-09-11T13:43:41.566Z,22.85
2022-09-11T13:46:15.667Z,22.50
2022-09-11T13:48:46.527Z,22.90
2022-09-11T13:51:29.600Z,22.87
2022-09-11T13:54:11.751Z,23.08
2022-09-11T13:56:55.811Z,23.22
2022-09-11T13:59:38.584Z,23.20
2022-09-11T14:02:37.336Z,23.47
2022-09-11T14:05:21.201Z,23.66
2022-09-11T14:08:01.545Z,24.01
2022-09-11T14:10:33.383Z,23.09
2022-09-11T14:13:27.684Z,23.32
2022-09-11T14:16:08.586Z,23.75
2022-09-11T14:18:40.610Z,24.12
2022-09-11T14:21:33.355Z,24.79
2022-09-11T14:24:01.678Z,24.07
2022-09-11T14:26:33.888Z,23.53
2022-09-11T14:29:12.956Z,23.07
2022-09-11T14:31:46.284Z,24.29
2022-09-11T14:34:29.907Z,23.42
2022-09-11T14:36:58.074Z,23.39
2022-09-11T14:39:39.194Z,23.41
2022-09-11T14:42:09.817Z,22.76
2022-09-11T14:44:40.347Z,23.44
2022-09-11T14:47:19.594Z,24.03
2022-09-11T14:49:48.384Z,23.84
2022-09-11T14:52:19.458Z,24.07
2022-09-11T14:54:48.149Z,23.57
2022-09-11T14:57:23.325Z,23.77
2022-09-11T14:59:52.552Z,24.11
2022-09-11T15:02:27.109Z,24.02
2022-09-11T15:04:57.502Z,24.05
2022-09-11T15:07:27.402Z,24.17
2022-09-11T15:09:55.764Z,23.92
2022-09-11T15:12:23.965Z,23.40
2022-09-11T15:14:56.888Z,23.05
2022-09-11T15:17:25.979Z,23.48
2022-09-11T15:19:54.350Z,23.88
2022-09-11T15:22:23.233Z,23.83
2022-09-11T15:24:51.925Z,23.76
2022-09-11T15:27:20.053Z,23.68
2022-09-11T15:29:48.185Z,23.93
2022-09-11T15:32:16.224Z,23.74
2022-09-11T15:34:45.303Z,23.56
2022-09-11T15:37:13.719Z,23.30
2022-09-11T15:39:41.808Z,23.35
2022-09-11T15:42:10.035Z,23.43
2022-09-11T15:44:38.231Z,22.99
2022-09-11T15:47:06.947Z,22.72
2022-09-11T15:49:41.666Z,22.78
2022-09-11T15:52:10.213Z,22.42
2022-09-11T15:54:38.305Z,22.23
2022-09-11T15:57:06.966Z,22.11
2022-09-11T15:59:35.193Z,22.38
2022-09-11T16:02:03.426Z,22.84
2022-09-11T16:04:32.300Z,22.98
2022-09-11T16:07:00.453Z,22.32
2022-09-11T16:09:31.339Z,22.14
2022-09-11T16:12:01.178Z,21.98
2022-09-11T16:14:35.390Z,22.51
2022-09-11T16:17:05.523Z,22.57
2022-09-11T16:19:34.363Z,22.65
2022-09-11T16:22:04.954Z,22.74
2022-09-11T16:24:37.665Z,22.84
2022-09-11T16:27:08.695Z,22.85
2022-09-11T16:30:15.554Z,22.46
2022-09-11T16:32:29.101Z,22.62
2022-09-11T16:34:59.736Z,22.47
2022-09-11T16:37:28.457Z,22.62
2022-09-11T16:39:56.814Z,22.63
2022-09-11T16:42:24.681Z,22.75
2022-09-11T16:44:53.565Z,21.98
2022-09-11T16:47:21.639Z,22.30
2022-09-11T16:50:06.611Z,22.41
2022-09-11T16:52:36.240Z,22.48
2022-09-11T16:55:06.342Z,22.25
2022-09-11T16:57:35.019Z,22.11
2022-09-11T17:00:04.069Z,22.12
2022-09-11T17:02:33.248Z,21.93
2022-09-11T17:05:01.284Z,21.92
2022-09-11T17:07:30.346Z,22.10
2022-09-11T17:09:58.796Z,22.21
2022-09-11T17:12:27.858Z,21.98
2022-09-11T17:14:55.963Z,22.08
2022-09-11T17:17:24.112Z,21.82
2022-09-11T17:19:52.286Z,21.03
2022-09-11T17:22:20.389Z,21.29
2022-09-11T17:24:48.169Z,21.31
2022-09-11T17:27:16.250Z,21.22
2022-09-11T17:29:45.032Z,21.26
2022-09-11T17:32:31.149Z,21.17
2022-09-11T17:34:59.434Z,21.05
2022-09-11T17:37:27.879Z,21.09
2022-09-11T17:39:56.195Z,20.96
2022-09-11T17:42:24.790Z,20.76
2022-09-11T17:44:52.956Z,20.53
2022-09-11T17:47:21.100Z,20.41
2022-09-11T17:49:50.477Z,20.42
2022-09-11T17:52:21.808Z,20.35
2022-09-11T17:54:50.084Z,20.12
2022-09-11T17:57:17.793Z,20.06
2022-09-11T17:59:49.935Z,19.78
2022-09-11T18:02:19.797Z,19.59
2022-09-11T18:04:48.209Z,19.36
2022-09-11T18:07:16.861Z,19.17
2022-09-11T18:09:45.545Z,19.08
2022-09-11T18:12:14.680Z,19.03
2022-09-11T18:14:45.303Z,18.91
2022-09-11T18:17:13.708Z,18.76
2022-09-11T18:19:42.312Z,18.79
2022-09-11T18:22:10.501Z,18.99
2022-09-11T18:24:39.796Z,18.91
2022-09-11T18:27:09.777Z,18.53
2022-09-11T18:29:39.979Z,18.40
2022-09-11T18:32:09.907Z,18.31
2022-09-11T18:34:39.049Z,18.11
2022-09-11T18:37:07.834Z,17.84
2022-09-11T18:39:36.011Z,18.01
2022-09-11T18:42:06.226Z,17.88
2022-09-11T18:44:34.429Z,17.83
2022-09-11T18:47:02.598Z,17.83
2022-09-11T18:49:30.667Z,17.67
2022-09-11T18:52:00.434Z,17.41
2022-09-11T18:54:30.084Z,17.65
2022-09-11T18:57:00.136Z,17.50
2022-09-11T18:59:28.503Z,17.18
2022-09-11T19:01:57.240Z,17.43
2022-09-11T19:04:26.878Z,17.62
2022-09-11T19:06:54.994Z,17.41
2022-09-11T19:09:23.111Z,17.42
2022-09-11T19:11:52.857Z,17.34
2022-09-11T19:14:21.101Z,17.38
2022-09-11T19:16:49.362Z,17.56
2022-09-11T19:19:17.581Z,17.37
2022-09-11T19:21:45.646Z,17.19
2022-09-11T19:24:13.856Z,17.21
2022-09-11T19:26:43.547Z,17.19
2022-09-11T19:29:16.038Z,17.27
2022-09-11T19:31:44.358Z,16.94
2022-09-11T19:34:13.069Z,16.84
2022-09-11T19:36:41.551Z,16.74
2022-09-11T19:39:11.427Z,16.56
2022-09-11T19:41:40.450Z,16.60
2022-09-11T19:44:13.028Z,16.78
2022-09-11T19:46:43.022Z,16.54
2022-09-11T19:49:11.327Z,16.50
2022-09-11T19:51:42.135Z,16.40
2022-09-11T19:54:13.386Z,16.38
2022-09-11T19:56:44.311Z,16.03
2022-09-11T19:59:14.424Z,15.94
2022-09-11T20:01:43.075Z,16.07
2022-09-11T20:04:13.523Z,16.08
2022-09-11T20:06:41.993Z,16.08
2022-09-11T20:09:30.492Z,16.16
2022-09-11T20:12:00.780Z,16.19
2022-09-11T20:14:30.230Z,16.26
2022-09-11T20:17:00.417Z,15.95
2022-09-11T20:19:28.808Z,15.96
2022-09-11T20:21:56.901Z,15.82
2022-09-11T20:24:25.170Z,15.74
2022-09-11T20:26:53.749Z,15.67
2022-09-11T20:29:21.943Z,15.80
2022-09-11T20:31:51.242Z,15.79
2022-09-11T20:34:20.431Z,15.80
2022-09-11T20:36:50.432Z,15.59
2022-09-11T20:39:20.090Z,15.33
2022-09-11T20:41:48.236Z,15.33
2022-09-11T20:44:16.417Z,15.20
2022-09-11T20:46:47.425Z,15.27
2022-09-11T20:49:15.753Z,15.31
2022-09-11T20:51:43.602Z,15.26
2022-09-11T20:54:11.817Z,15.23
2022-09-11T20:56:39.631Z,15.07
2022-09-11T20:59:08.117Z,15.13
2022-09-11T21:01:36.843Z,15.28
2022-09-11T21:04:05.649Z,15.15
2022-09-11T21:06:36.166Z,14.95
2022-09-11T21:09:11.242Z,14.98
2022-09-11T21:11:42.792Z,15.04
2022-09-11T21:14:13.146Z,15.08
2022-09-11T21:16:41.876Z,15.15
2022-09-11T21:19:10.385Z,15.09
2022-09-11T21:21:40.058Z,14.91
2022-09-11T21:24:12.794Z,14.78
2022-09-11T21:26:42.403Z,14.78
2022-09-11T21:29:13.561Z,14.90
2022-09-11T21:31:41.821Z,14.98
2022-09-11T21:34:10.655Z,15.01
2022-09-11T21:36:38.785Z,14.98
2022-09-11T21:39:06.878Z,14.93
2022-09-11T21:41:34.995Z,14.91
2022-09-11T21:44:03.272Z,14.99
2022-09-11T21:46:31.507Z,14.96
2022-09-11T21:49:00.003Z,14.71
2022-09-11T21:51:28.211Z,14.44
2022-09-11T21:53:58.940Z,14.50
2022-09-11T21:56:31.081Z,14.46
2022-09-11T21:58:59.933Z,14.53
2022-09-11T22:01:29.165Z,14.41
2022-09-11T22:04:00.496Z,14.28
2022-09-11T22:06:29.975Z,14.22
2022-09-11T22:08:58.176Z,14.25
2022-09-11T22:11:26.474Z,14.14
2022-09-11T22:13:54.650Z,14.12
2022-09-11T22:16:23.429Z,14.23
2022-09-11T22:18:53.866Z,14.26
2022-09-11T22:21:22.462Z,14.35
2022-09-11T22:23:50.167Z,14.36
2022-09-11T22:26:21.028Z,14.34
2022-09-11T22:28:49.310Z,14.45
2022-09-11T22:31:21.926Z,14.37
2022-09-11T22:33:50.541Z,14.34
2022-09-11T22:36:24.676Z,14.30
2022-09-11T22:38:53.029Z,14.29
2022-09-11T22:41:21.432Z,14.39
2022-09-11T22:43:50.220Z,14.27
2022-09-11T22:46:20.703Z,14.08
2022-09-11T22:48:49.070Z,14.07
2022-09-11T22:51:17.416Z,14.22
2022-09-11T22:53:45.528Z,14.12
2022-09-11T22:56:13.963Z,13.95
2022-09-11T22:58:42.370Z,13.94
2022-09-11T23:01:12.594Z,13.97
2022-09-11T23:03:40.785Z,14.06
2022-09-11T23:06:29.892Z,13.96
2022-09-11T23:09:00.439Z,13.95
2022-09-11T23:11:29.705Z,13.98
2022-09-11T23:13:58.226Z,13.92
2022-09-11T23:16:30.364Z,13.88
2022-09-11T23:19:05.137Z,13.90
2022-09-11T23:21:35.571Z,13.87
2022-09-11T23:24:06.121Z,13.88
2022-09-11T23:26:34.034Z,13.91
2022-09-11T23:29:02.255Z,13.84
2022-09-11T23:31:32.791Z,13.80
2022-09-11T23:34:05.106Z,13.77
2022-09-11T23:36:33.974Z,13.67
2022-09-11T23:39:02.507Z,13.66
2022-09-11T23:41:32.113Z,13.53
2022-09-11T23:44:00.306Z,13.44
2022-09-11T23:46:28.370Z,13.30
2022-09-11T23:48:56.119Z,13.29
2022-09-11T23:51:24.321Z,13.21
2022-09-11T23:53:52.364Z,13.10
2022-09-11T23:56:20.990Z,13.20
2022-09-11T23:58:50.884Z,13.32
